sensor_id;sensor_type;location;lat;lon;timestamp;temperature;humidity
15707;DHT22;7953;54.302;10.128;2024-01-10T00:01:36;-1.70;99.90
15707;DHT22;7953;54.302;10.128;2024-01-10T00:04:03;-1.60;99.90
15707;DHT22;7953;54.302;10.128;2024-01-10T00:06:30;-1.60;99.90
15707;DHT22;7953;54.302;10.128;2024-01-10T00:08:58;-1.60;99.90
15707;DHT22;7953;54.302;10.128;2024-01-10T00:11:25;-1.60;99.90
15707;DHT22;7953;54.302;10.128;2024-01-10T00:13:52;-1.60;99.90
15707;DHT22;7953;54.302;10.128;2024-01-10T00:16:18;-1.50;99.90
15707;DHT22;7953;54.302;10.128;2024-01-10T00:18:45;-1.60;99.90
15707;DHT22;7953;54.302;10.128;2024-01-10T00:21:11;-1.60;99.90
15707;DHT22;7953;54.302;10.128;2024-01-10T00:23:39;-1.60;99.90
15707;DHT22;7953;54.302;10.128;2024-01-10T00:26:07;-1.70;99.90
15707;DHT22;7953;54.302;10.128;2024-01-10T00:28:34;-1.70;99.90
15707;DHT22;7953;54.302;10.128;2024-01-10T00:31:00;-1.70;99.90
15707;DHT22;7953;54.302;10.128;2024-01-10T00:33:27;-1.80;99.90
15707;DHT22;7953;54.302;10.128;2024-01-10T00:35:54;-1.80;99.90
15707;DHT22;7953;54.302;10.128;2024-01-10T00:38:21;-1.70;99.90
15707;DHT22;7953;54.302;10.128;2024-01-10T00:40:48;-1.80;99.90
15707;DHT22;7953;54.302;10.128;2024-01-10T00:43:16;-1.80;99.90
15707;DHT22;7953;54.302;10.128;2024-01-10T00:45:43;-1.80;99.90
15707;DHT22;7953;54.302;10.128;2024-01-10T00:48:10;-1.80;99.90
15707;DHT22;7953;54.302;10.128;2024-01-10T00:50:36;-1.80;99.90
15707;DHT22;7953;54.302;10.128;2024-01-10T00:53:03;-1.80;99.90
15707;DHT22;7953;54.302;10.128;2024-01-10T00:55:29;-1.80;99.90
15707;DHT22;7953;54.302;10.128;2024-01-10T00:57:56;-1.90;99.90
15707;DHT22;7953;54.302;10.128;2024-01-10T01:00:24;-1.80;99.90
15707;DHT22;7953;54.302;10.128;2024-01-10T01:02:52;-1.80;99.90
15707;DHT22;7953;54.302;10.128;2024-01-10T01:05:19;-1.80;99.90
15707;DHT22;7953;54.302;10.128;2024-01-10T01:07:45;-1.80;99.90
15707;DHT22;7953;54.302;10.128;2024-01-10T01:10:12;-1.80;99.90
15707;DHT22;7953;54.302;10.128;2024-01-10T01:12:39;-1.80;99.90
15707;DHT22;7953;54.302;10.128;2024-01-10T01:15:06;-1.80;99.90
15707;DHT22;7953;54.302;10.128;2024-01-10T01:17:35;-1.80;99.90
15707;DHT22;7953;54.302;10.128;2024-01-10T01:20:02;-1.70;99.90
15707;DHT22;7953;54.302;10.128;2024-01-10T01:22:30;-1.80;99.90
15707;DHT22;7953;54.302;10.128;2024-01-10T01:24:57;-1.70;99.90
15707;DHT22;7953;54.302;10.128;2024-01-10T01:27:24;-1.60;99.90
15707;DHT22;7953;54.302;10.128;2024-01-10T01:29:51;-1.70;99.90
15707;DHT22;7953;54.302;10.128;2024-01-10T01:32:18;-1.70;99.90
15707;DHT22;7953;54.302;10.128;2024-01-10T01:34:46;-1.70;99.90
15707;DHT22;7953;54.302;10.128;2024-01-10T01:37:13;-1.70;99.90
15707;DHT22;7953;54.302;10.128;2024-01-10T01:39:40;-1.70;99.90
15707;DHT22;7953;54.302;10.128;2024-01-10T01:42:07;-1.70;99.90
15707;DHT22;7953;54.302;10.128;2024-01-10T01:44:34;-1.70;99.90
15707;DHT22;7953;54.302;10.128;2024-01-10T01:47:01;-1.70;99.90
15707;DHT22;7953;54.302;10.128;2024-01-10T01:49:28;-1.70;99.90
15707;DHT22;7953;54.302;10.128;2024-01-10T01:51:57;-1.70;99.90
15707;DHT22;7953;54.302;10.128;2024-01-10T01:54:24;-1.70;99.90
15707;DHT22;7953;54.302;10.128;2024-01-10T01:56:52;-1.70;99.90
15707;DHT22;7953;54.302;10.128;2024-01-10T01:59:19;-1.70;99.90
15707;DHT22;7953;54.302;10.128;2024-01-10T02:01:46;-1.70;99.90
15707;DHT22;7953;54.302;10.128;2024-01-10T02:04:13;-1.70;99.90
15707;DHT22;7953;54.302;10.128;2024-01-10T02:06:40;-1.70;99.90
15707;DHT22;7953;54.302;10.128;2024-01-10T02:09:08;-1.70;99.90
15707;DHT22;7953;54.302;10.128;2024-01-10T02:11:35;-1.70;99.90
15707;DHT22;7953;54.302;10.128;2024-01-10T02:14:02;-1.70;99.90
15707;DHT22;7953;54.302;10.128;2024-01-10T02:16:29;-1.70;99.90
15707;DHT22;7953;54.302;10.128;2024-01-10T02:18:56;-1.60;99.90
15707;DHT22;7953;54.302;10.128;2024-01-10T02:21:23;-1.70;99.90
15707;DHT22;7953;54.302;10.128;2024-01-10T02:23:50;-1.70;99.90
15707;DHT22;7953;54.302;10.128;2024-01-10T02:26:18;-1.70;99.90
15707;DHT22;7953;54.302;10.128;2024-01-10T02:28:45;-1.70;99.90
15707;DHT22;7953;54.302;10.128;2024-01-10T02:31:12;-1.70;99.90
15707;DHT22;7953;54.302;10.128;2024-01-10T02:33:38;-1.60;99.90
15707;DHT22;7953;54.302;10.128;2024-01-10T02:36:05;-1.60;99.90
15707;DHT22;7953;54.302;10.128;2024-01-10T02:38:32;-1.70;99.90
15707;DHT22;7953;54.302;10.128;2024-01-10T02:40:59;-1.60;99.90
15707;DHT22;7953;54.302;10.128;2024-01-10T02:43:29;-1.60;99.90
15707;DHT22;7953;54.302;10.128;2024-01-10T02:45:56;-1.60;99.90
15707;DHT22;7953;54.302;10.128;2024-01-10T02:48:22;-1.60;99.90
15707;DHT22;7953;54.302;10.128;2024-01-10T02:50:49;-1.60;99.90
15707;DHT22;7953;54.302;10.128;2024-01-10T02:53:16;-1.60;99.90
15707;DHT22;7953;54.302;10.128;2024-01-10T02:55:44;-1.60;99.90
15707;DHT22;7953;54.302;10.128;2024-01-10T02:58:12;-1.50;99.90
15707;DHT22;7953;54.302;10.128;2024-01-10T03:00:40;-1.50;99.90
15707;DHT22;7953;54.302;10.128;2024-01-10T03:03:07;-1.50;99.90
15707;DHT22;7953;54.302;10.128;2024-01-10T03:05:33;-1.50;99.90
15707;DHT22;7953;54.302;10.128;2024-01-10T03:08:00;-1.50;99.90
15707;DHT22;7953;54.302;10.128;2024-01-10T03:10:27;-1.50;99.90
15707;DHT22;7953;54.302;10.128;2024-01-10T03:12:54;-1.50;99.90
15707;DHT22;7953;54.302;10.128;2024-01-10T03:15:21;-1.40;99.90
15707;DHT22;7953;54.302;10.128;2024-01-10T03:17:50;-1.40;99.90
15707;DHT22;7953;54.302;10.128;2024-01-10T03:20:17;-1.30;99.90
15707;DHT22;7953;54.302;10.128;2024-01-10T03:22:43;-1.30;99.90
15707;DHT22;7953;54.302;10.128;2024-01-10T03:25:10;-1.30;99.90
15707;DHT22;7953;54.302;10.128;2024-01-10T03:27:37;-1.30;99.90
15707;DHT22;7953;54.302;10.128;2024-01-10T03:30:05;-1.30;99.90
15707;DHT22;7953;54.302;10.128;2024-01-10T03:32:32;-1.30;99.90
15707;DHT22;7953;54.302;10.128;2024-01-10T03:35:00;-1.30;99.90
15707;DHT22;7953;54.302;10.128;2024-01-10T03:37:27;-1.30;99.90
15707;DHT22;7953;54.302;10.128;2024-01-10T03:39:54;-1.30;99.90
15707;DHT22;7953;54.302;10.128;2024-01-10T03:42:21;-1.20;99.90
15707;DHT22;7953;54.302;10.128;2024-01-10T03:44:48;-1.20;99.90
15707;DHT22;7953;54.302;10.128;2024-01-10T03:47:14;-1.20;99.90
15707;DHT22;7953;54.302;10.128;2024-01-10T03:49:41;-1.20;99.90
15707;DHT22;7953;54.302;10.128;2024-01-10T03:52:09;-1.20;99.90
15707;DHT22;7953;54.302;10.128;2024-01-10T03:54:36;-1.20;99.90
15707;DHT22;7953;54.302;10.128;2024-01-10T03:57:04;-1.20;99.90
15707;DHT22;7953;54.302;10.128;2024-01-10T03:59:31;-1.20;99.90
15707;DHT22;7953;54.302;10.128;2024-01-10T04:01:58;-1.20;99.90
15707;DHT22;7953;54.302;10.128;2024-01-10T04:04:26;-1.20;99.90
15707;DHT22;7953;54.302;10.128;2024-01-10T04:06:52;-1.20;99.90
15707;DHT22;7953;54.302;10.128;2024-01-10T04:09:21;-1.20;99.90
15707;DHT22;7953;54.302;10.128;2024-01-10T04:11:47;-1.10;99.90
15707;DHT22;7953;54.302;10.128;2024-01-10T04:14:14;-1.10;99.90
15707;DHT22;7953;54.302;10.128;2024-01-10T04:16:42;-1.10;99.90
15707;DHT22;7953;54.302;10.128;2024-01-10T04:19:09;-1.10;99.90
15707;DHT22;7953;54.302;10.128;2024-01-10T04:21:36;-1.10;99.90
15707;DHT22;7953;54.302;10.128;2024-01-10T04:24:03;-1.10;99.90
15707;DHT22;7953;54.302;10.128;2024-01-10T04:26:31;-1.10;99.90
15707;DHT22;7953;54.302;10.128;2024-01-10T04:28:58;-1.10;99.90
15707;DHT22;7953;54.302;10.128;2024-01-10T04:31:25;-1.10;99.90
15707;DHT22;7953;54.302;10.128;2024-01-10T04:33:52;-1.00;99.90
15707;DHT22;7953;54.302;10.128;2024-01-10T04:36:18;-1.00;99.90
15707;DHT22;7953;54.302;10.128;2024-01-10T04:38:45;-1.00;99.90
15707;DHT22;7953;54.302;10.128;2024-01-10T04:41:12;-1.00;99.90
15707;DHT22;7953;54.302;10.128;2024-01-10T04:43:40;-1.00;99.90
15707;DHT22;7953;54.302;10.128;2024-01-10T04:46:07;-1.00;99.90
15707;DHT22;7953;54.302;10.128;2024-01-10T04:48:36;-1.00;99.90
15707;DHT22;7953;54.302;10.128;2024-01-10T04:51:03;-1.00;99.90
15707;DHT22;7953;54.302;10.128;2024-01-10T04:53:30;-0.90;99.90
15707;DHT22;7953;54.302;10.128;2024-01-10T04:55:57;-0.90;99.90
15707;DHT22;7953;54.302;10.128;2024-01-10T04:58:23;-0.90;99.90
15707;DHT22;7953;54.302;10.128;2024-01-10T05:00:52;-0.90;99.90
15707;DHT22;7953;54.302;10.128;2024-01-10T05:03:18;-0.90;99.90
15707;DHT22;7953;54.302;10.128;2024-01-10T05:05:45;-0.90;99.90
15707;DHT22;7953;54.302;10.128;2024-01-10T05:08:12;-0.90;99.90
15707;DHT22;7953;54.302;10.128;2024-01-10T05:10:39;-0.80;99.90
15707;DHT22;7953;54.302;10.128;2024-01-10T05:13:06;-0.80;99.90
15707;DHT22;7953;54.302;10.128;2024-01-10T05:15:33;-0.80;99.90
15707;DHT22;7953;54.302;10.128;2024-01-10T05:18:01;-0.80;99.90
15707;DHT22;7953;54.302;10.128;2024-01-10T05:20:28;-0.80;99.90
15707;DHT22;7953;54.302;10.128;2024-01-10T05:22:55;-0.80;99.90
15707;DHT22;7953;54.302;10.128;2024-01-10T05:25:24;-0.90;99.90
15707;DHT22;7953;54.302;10.128;2024-01-10T05:27:50;-0.90;99.90
15707;DHT22;7953;54.302;10.128;2024-01-10T05:30:17;-0.90;99.90
15707;DHT22;7953;54.302;10.128;2024-01-10T05:32:44;-0.80;99.90
15707;DHT22;7953;54.302;10.128;2024-01-10T05:35:12;-0.80;99.90
15707;DHT22;7953;54.302;10.128;2024-01-10T05:37:39;-0.70;99.90
15707;DHT22;7953;54.302;10.128;2024-01-10T05:40:07;-0.60;99.90
15707;DHT22;7953;54.302;10.128;2024-01-10T05:42:34;-0.60;99.90
15707;DHT22;7953;54.302;10.128;2024-01-10T05:45:04;-0.60;99.90
15707;DHT22;7953;54.302;10.128;2024-01-10T05:47:31;-0.70;99.90
15707;DHT22;7953;54.302;10.128;2024-01-10T05:49:58;-0.70;99.90
15707;DHT22;7953;54.302;10.128;2024-01-10T05:52:26;-0.80;99.90
15707;DHT22;7953;54.302;10.128;2024-01-10T05:54:53;-0.80;99.90
15707;DHT22;7953;54.302;10.128;2024-01-10T05:57:21;-0.80;99.90
15707;DHT22;7953;54.302;10.128;2024-01-10T05:59:48;-0.80;99.90
15707;DHT22;7953;54.302;10.128;2024-01-10T06:02:14;-0.80;99.90
15707;DHT22;7953;54.302;10.128;2024-01-10T06:04:42;-0.80;99.90
15707;DHT22;7953;54.302;10.128;2024-01-10T06:07:09;-0.80;99.90
15707;DHT22;7953;54.302;10.128;2024-01-10T06:09:37;-0.80;99.90
15707;DHT22;7953;54.302;10.128;2024-01-10T06:12:06;-0.80;99.90
15707;DHT22;7953;54.302;10.128;2024-01-10T06:14:33;-0.90;99.90
15707;DHT22;7953;54.302;10.128;2024-01-10T06:17:00;-0.70;99.90
15707;DHT22;7953;54.302;10.128;2024-01-10T06:19:29;-0.70;99.90
15707;DHT22;7953;54.302;10.128;2024-01-10T06:21:56;-0.80;99.90
15707;DHT22;7953;54.302;10.128;2024-01-10T06:24:23;-0.80;99.90
15707;DHT22;7953;54.302;10.128;2024-01-10T06:26:51;-0.80;99.90
15707;DHT22;7953;54.302;10.128;2024-01-10T06:29:18;-0.80;99.90
15707;DHT22;7953;54.302;10.128;2024-01-10T06:31:46;-0.70;99.90
15707;DHT22;7953;54.302;10.128;2024-01-10T06:34:13;-0.70;99.90
15707;DHT22;7953;54.302;10.128;2024-01-10T06:36:39;-0.70;99.90
15707;DHT22;7953;54.302;10.128;2024-01-10T06:39:09;-0.80;99.90
15707;DHT22;7953;54.302;10.128;2024-01-10T06:41:38;-0.80;99.90
15707;DHT22;7953;54.302;10.128;2024-01-10T06:44:06;-0.70;99.90
15707;DHT22;7953;54.302;10.128;2024-01-10T06:46:33;-0.70;99.90
15707;DHT22;7953;54.302;10.128;2024-01-10T06:49:00;-0.70;99.90
15707;DHT22;7953;54.302;10.128;2024-01-10T06:51:27;-0.70;99.90
15707;DHT22;7953;54.302;10.128;2024-01-10T06:53:53;-0.80;99.90
15707;DHT22;7953;54.302;10.128;2024-01-10T06:56:28;-0.80;99.90
15707;DHT22;7953;54.302;10.128;2024-01-10T06:58:54;-0.80;99.90
15707;DHT22;7953;54.302;10.128;2024-01-10T07:01:23;-0.70;99.90
15707;DHT22;7953;54.302;10.128;2024-01-10T07:03:49;-0.80;99.90
15707;DHT22;7953;54.302;10.128;2024-01-10T07:06:17;-0.80;99.90
15707;DHT22;7953;54.302;10.128;2024-01-10T07:08:44;-0.80;99.90
15707;DHT22;7953;54.302;10.128;2024-01-10T07:11:11;-0.70;99.90
15707;DHT22;7953;54.302;10.128;2024-01-10T07:13:38;-0.70;99.90
15707;DHT22;7953;54.302;10.128;2024-01-10T07:16:05;-0.70;99.90
15707;DHT22;7953;54.302;10.128;2024-01-10T07:18:33;-0.70;99.90
15707;DHT22;7953;54.302;10.128;2024-01-10T07:21:00;-0.70;99.90
15707;DHT22;7953;54.302;10.128;2024-01-10T07:23:27;-0.70;99.90
15707;DHT22;7953;54.302;10.128;2024-01-10T07:25:54;-0.70;99.90
15707;DHT22;7953;54.302;10.128;2024-01-10T07:28:21;-0.70;99.90
15707;DHT22;7953;54.302;10.128;2024-01-10T07:30:48;-0.70;99.90
15707;DHT22;7953;54.302;10.128;2024-01-10T07:33:15;-0.70;99.90
15707;DHT22;7953;54.302;10.128;2024-01-10T07:35:43;-0.70;99.90
15707;DHT22;7953;54.302;10.128;2024-01-10T07:38:10;-0.60;99.90
15707;DHT22;7953;54.302;10.128;2024-01-10T07:40:36;-0.60;99.90
15707;DHT22;7953;54.302;10.128;2024-01-10T07:43:04;-0.70;99.90
15707;DHT22;7953;54.302;10.128;2024-01-10T07:45:31;-0.60;99.90
15707;DHT22;7953;54.302;10.128;2024-01-10T07:47:58;-0.70;99.90
15707;DHT22;7953;54.302;10.128;2024-01-10T07:50:25;-0.70;99.90
15707;DHT22;7953;54.302;10.128;2024-01-10T07:52:54;-0.70;99.90
15707;DHT22;7953;54.302;10.128;2024-01-10T07:55:21;-0.70;99.90
15707;DHT22;7953;54.302;10.128;2024-01-10T07:57:48;-0.70;99.90
15707;DHT22;7953;54.302;10.128;2024-01-10T08:00:16;-0.60;99.90
15707;DHT22;7953;54.302;10.128;2024-01-10T08:02:45;-0.60;99.90
15707;DHT22;7953;54.302;10.128;2024-01-10T08:05:12;-0.60;99.90
15707;DHT22;7953;54.302;10.128;2024-01-10T08:07:38;-0.60;99.90
15707;DHT22;7953;54.302;10.128;2024-01-10T08:10:08;-0.60;99.90
15707;DHT22;7953;54.302;10.128;2024-01-10T08:12:35;-0.50;99.90
15707;DHT22;7953;54.302;10.128;2024-01-10T08:15:02;-0.50;99.90
15707;DHT22;7953;54.302;10.128;2024-01-10T08:17:29;-0.60;99.90
15707;DHT22;7953;54.302;10.128;2024-01-10T08:19:55;-0.50;99.90
15707;DHT22;7953;54.302;10.128;2024-01-10T08:22:22;-0.50;99.90
15707;DHT22;7953;54.302;10.128;2024-01-10T08:24:49;-0.40;99.90
15707;DHT22;7953;54.302;10.128;2024-01-10T08:27:17;-0.50;99.90
15707;DHT22;7953;54.302;10.128;2024-01-10T08:29:44;-0.50;99.90
15707;DHT22;7953;54.302;10.128;2024-01-10T08:32:11;-0.50;99.90
15707;DHT22;7953;54.302;10.128;2024-01-10T08:34:38;-0.50;99.90
15707;DHT22;7953;54.302;10.128;2024-01-10T08:37:05;-0.50;99.90
15707;DHT22;7953;54.302;10.128;2024-01-10T08:39:31;-0.50;99.90
15707;DHT22;7953;54.302;10.128;2024-01-10T08:41:58;-0.50;99.90
15707;DHT22;7953;54.302;10.128;2024-01-10T08:44:26;-0.50;99.90
15707;DHT22;7953;54.302;10.128;2024-01-10T08:46:54;-0.50;99.90
15707;DHT22;7953;54.302;10.128;2024-01-10T08:49:21;-0.50;99.90
15707;DHT22;7953;54.302;10.128;2024-01-10T08:51:48;-0.50;99.90
15707;DHT22;7953;54.302;10.128;2024-01-10T08:54:15;-0.40;99.90
15707;DHT22;7953;54.302;10.128;2024-01-10T08:56:45;-0.40;99.90
15707;DHT22;7953;54.302;10.128;2024-01-10T08:59:12;-0.40;99.90
15707;DHT22;7953;54.302;10.128;2024-01-10T09:01:40;-0.40;99.90
15707;DHT22;7953;54.302;10.128;2024-01-10T09:04:07;-0.30;99.90
15707;DHT22;7953;54.302;10.128;2024-01-10T09:06:34;-0.30;99.90
15707;DHT22;7953;54.302;10.128;2024-01-10T09:09:01;-0.30;99.90
15707;DHT22;7953;54.302;10.128;2024-01-10T09:11:28;-0.30;99.90
15707;DHT22;7953;54.302;10.128;2024-01-10T09:13:55;-0.20;99.90
15707;DHT22;7953;54.302;10.128;2024-01-10T09:16:22;-0.20;99.90
15707;DHT22;7953;54.302;10.128;2024-01-10T09:18:50;-0.10;99.90
15707;DHT22;7953;54.302;10.128;2024-01-10T09:21:19;-0.10;99.90
15707;DHT22;7953;54.302;10.128;2024-01-10T09:23:46;-0.10;99.90
15707;DHT22;7953;54.302;10.128;2024-01-10T09:26:16;0.00;99.90
15707;DHT22;7953;54.302;10.128;2024-01-10T09:28:43;-0.10;99.90
15707;DHT22;7953;54.302;10.128;2024-01-10T09:31:10;0.00;99.90
15707;DHT22;7953;54.302;10.128;2024-01-10T09:33:37;0.00;99.90
15707;DHT22;7953;54.302;10.128;2024-01-10T09:36:05;0.00;99.90
15707;DHT22;7953;54.302;10.128;2024-01-10T09:38:35;0.00;99.90
15707;DHT22;7953;54.302;10.128;2024-01-10T09:41:03;0.00;99.90
15707;DHT22;7953;54.302;10.128;2024-01-10T09:43:31;0.10;99.90
15707;DHT22;7953;54.302;10.128;2024-01-10T09:46:00;0.10;99.90
15707;DHT22;7953;54.302;10.128;2024-01-10T09:48:29;0.10;99.90
15707;DHT22;7953;54.302;10.128;2024-01-10T09:50:56;0.10;99.90
15707;DHT22;7953;54.302;10.128;2024-01-10T09:53:25;0.10;99.90
15707;DHT22;7953;54.302;10.128;2024-01-10T09:55:53;0.10;99.90
15707;DHT22;7953;54.302;10.128;2024-01-10T09:58:23;0.20;99.90
15707;DHT22;7953;54.302;10.128;2024-01-10T10:00:50;0.20;99.90
15707;DHT22;7953;54.302;10.128;2024-01-10T10:03:18;0.20;99.90
15707;DHT22;7953;54.302;10.128;2024-01-10T10:05:45;0.30;99.90
15707;DHT22;7953;54.302;10.128;2024-01-10T10:08:13;0.30;99.90
15707;DHT22;7953;54.302;10.128;2024-01-10T10:10:48;0.30;99.90
15707;DHT22;7953;54.302;10.128;2024-01-10T10:13:24;0.30;99.90
15707;DHT22;7953;54.302;10.128;2024-01-10T10:15:58;0.40;99.90
15707;DHT22;7953;54.302;10.128;2024-01-10T10:18:25;0.40;99.90
15707;DHT22;7953;54.302;10.128;2024-01-10T10:21:06;0.50;99.90
15707;DHT22;7953;54.302;10.128;2024-01-10T10:23:33;0.50;99.90
15707;DHT22;7953;54.302;10.128;2024-01-10T10:26:10;0.50;99.90
15707;DHT22;7953;54.302;10.128;2024-01-10T10:28:40;0.50;99.90
15707;DHT22;7953;54.302;10.128;2024-01-10T10:31:07;0.60;99.90
15707;DHT22;7953;54.302;10.128;2024-01-10T10:33:34;0.60;99.90
15707;DHT22;7953;54.302;10.128;2024-01-10T10:36:01;0.70;99.90
15707;DHT22;7953;54.302;10.128;2024-01-10T10:38:28;0.70;99.90
15707;DHT22;7953;54.302;10.128;2024-01-10T10:40:55;0.70;99.90
15707;DHT22;7953;54.302;10.128;2024-01-10T10:43:26;0.80;99.90
15707;DHT22;7953;54.302;10.128;2024-01-10T10:45:57;0.80;99.90
15707;DHT22;7953;54.302;10.128;2024-01-10T10:48:25;0.80;99.90
15707;DHT22;7953;54.302;10.128;2024-01-10T10:51:01;0.80;99.90
15707;DHT22;7953;54.302;10.128;2024-01-10T10:53:33;0.80;99.90
15707;DHT22;7953;54.302;10.128;2024-01-10T10:56:02;0.80;99.90
15707;DHT22;7953;54.302;10.128;2024-01-10T10:58:34;0.90;99.90
15707;DHT22;7953;54.302;10.128;2024-01-10T11:01:03;0.90;99.90
15707;DHT22;7953;54.302;10.128;2024-01-10T11:03:34;0.90;99.90
15707;DHT22;7953;54.302;10.128;2024-01-10T11:06:02;0.90;99.90
15707;DHT22;7953;54.302;10.128;2024-01-10T11:08:32;1.00;99.90
15707;DHT22;7953;54.302;10.128;2024-01-10T11:11:01;1.00;99.90
15707;DHT22;7953;54.302;10.128;2024-01-10T11:13:46;1.00;99.90
15707;DHT22;7953;54.302;10.128;2024-01-10T11:16:42;1.00;99.90
15707;DHT22;7953;54.302;10.128;2024-01-10T11:19:31;0.90;99.90
15707;DHT22;7953;54.302;10.128;2024-01-10T11:22:10;0.90;99.90
15707;DHT22;7953;54.302;10.128;2024-01-10T11:24:43;0.90;99.90
15707;DHT22;7953;54.302;10.128;2024-01-10T11:27:11;1.00;99.90
15707;DHT22;7953;54.302;10.128;2024-01-10T11:29:40;1.00;99.90
15707;DHT22;7953;54.302;10.128;2024-01-10T11:32:13;0.90;99.90
15707;DHT22;7953;54.302;10.128;2024-01-10T11:34:49;0.90;99.90
15707;DHT22;7953;54.302;10.128;2024-01-10T11:37:16;1.00;99.90
15707;DHT22;7953;54.302;10.128;2024-01-10T11:39:44;1.00;99.90
15707;DHT22;7953;54.302;10.128;2024-01-10T11:42:11;1.00;99.90
15707;DHT22;7953;54.302;10.128;2024-01-10T11:44:50;1.00;99.90
15707;DHT22;7953;54.302;10.128;2024-01-10T11:47:19;1.10;99.90
15707;DHT22;7953;54.302;10.128;2024-01-10T11:49:56;1.10;99.90
15707;DHT22;7953;54.302;10.128;2024-01-10T11:52:24;1.10;99.90
15707;DHT22;7953;54.302;10.128;2024-01-10T11:54:58;1.20;99.90
15707;DHT22;7953;54.302;10.128;2024-01-10T11:57:27;1.20;99.90
15707;DHT22;7953;54.302;10.128;2024-01-10T11:59:56;1.10;99.90
15707;DHT22;7953;54.302;10.128;2024-01-10T12:02:26;1.20;99.90
15707;DHT22;7953;54.302;10.128;2024-01-10T12:04:53;1.20;99.90
15707;DHT22;7953;54.302;10.128;2024-01-10T12:07:20;1.20;99.90
15707;DHT22;7953;54.302;10.128;2024-01-10T12:09:49;1.20;99.90
15707;DHT22;7953;54.302;10.128;2024-01-10T12:12:16;1.20;99.90
15707;DHT22;7953;54.302;10.128;2024-01-10T12:14:43;1.20;99.90
15707;DHT22;7953;54.302;10.128;2024-01-10T12:17:13;1.20;99.90
15707;DHT22;7953;54.302;10.128;2024-01-10T12:19:40;1.10;99.90
15707;DHT22;7953;54.302;10.128;2024-01-10T12:22:10;1.10;99.90
15707;DHT22;7953;54.302;10.128;2024-01-10T12:24:42;1.20;99.90
15707;DHT22;7953;54.302;10.128;2024-01-10T12:27:10;1.20;99.90
15707;DHT22;7953;54.302;10.128;2024-01-10T12:29:37;1.20;99.90
15707;DHT22;7953;54.302;10.128;2024-01-10T12:32:05;1.20;99.90
15707;DHT22;7953;54.302;10.128;2024-01-10T12:34:33;1.20;99.90
15707;DHT22;7953;54.302;10.128;2024-01-10T12:37:04;1.20;99.90
15707;DHT22;7953;54.302;10.128;2024-01-10T12:39:30;1.20;99.90
15707;DHT22;7953;54.302;10.128;2024-01-10T12:41:57;1.20;99.90
15707;DHT22;7953;54.302;10.128;2024-01-10T12:44:27;1.30;99.90
15707;DHT22;7953;54.302;10.128;2024-01-10T12:46:54;1.20;99.90
15707;DHT22;7953;54.302;10.128;2024-01-10T12:49:23;1.30;99.90
15707;DHT22;7953;54.302;10.128;2024-01-10T12:51:51;1.30;99.90
15707;DHT22;7953;54.302;10.128;2024-01-10T12:54:18;1.20;99.90
15707;DHT22;7953;54.302;10.128;2024-01-10T12:56:45;1.20;99.90
15707;DHT22;7953;54.302;10.128;2024-01-10T12:59:12;1.20;99.90
15707;DHT22;7953;54.302;10.128;2024-01-10T13:01:39;1.20;99.90
15707;DHT22;7953;54.302;10.128;2024-01-10T13:04:07;1.20;99.90
15707;DHT22;7953;54.302;10.128;2024-01-10T13:06:34;1.20;99.90
15707;DHT22;7953;54.302;10.128;2024-01-10T13:09:02;1.20;99.90
15707;DHT22;7953;54.302;10.128;2024-01-10T13:11:29;1.20;99.90
15707;DHT22;7953;54.302;10.128;2024-01-10T13:13:56;1.20;99.90
15707;DHT22;7953;54.302;10.128;2024-01-10T13:16:23;1.20;99.90
15707;DHT22;7953;54.302;10.128;2024-01-10T13:18:50;1.10;99.90
15707;DHT22;7953;54.302;10.128;2024-01-10T13:21:19;1.10;99.90
15707;DHT22;7953;54.302;10.128;2024-01-10T13:23:46;1.20;99.90
15707;DHT22;7953;54.302;10.128;2024-01-10T13:26:14;1.20;99.90
15707;DHT22;7953;54.302;10.128;2024-01-10T13:28:41;1.20;99.90
15707;DHT22;7953;54.302;10.128;2024-01-10T13:31:08;1.20;99.90
15707;DHT22;7953;54.302;10.128;2024-01-10T13:33:35;1.20;99.90
15707;DHT22;7953;54.302;10.128;2024-01-10T13:36:03;1.10;99.90
15707;DHT22;7953;54.302;10.128;2024-01-10T13:38:30;1.10;99.90
15707;DHT22;7953;54.302;10.128;2024-01-10T13:40:57;1.10;99.90
15707;DHT22;7953;54.302;10.128;2024-01-10T13:43:25;1.00;99.90
15707;DHT22;7953;54.302;10.128;2024-01-10T13:45:51;1.10;99.90
15707;DHT22;7953;54.302;10.128;2024-01-10T13:48:19;1.10;99.90
15707;DHT22;7953;54.302;10.128;2024-01-10T13:50:46;1.00;99.90
15707;DHT22;7953;54.302;10.128;2024-01-10T13:53:14;1.10;99.90
15707;DHT22;7953;54.302;10.128;2024-01-10T13:55:41;1.10;99.90
15707;DHT22;7953;54.302;10.128;2024-01-10T13:58:08;1.10;99.90
15707;DHT22;7953;54.302;10.128;2024-01-10T14:00:37;1.10;99.90
15707;DHT22;7953;54.302;10.128;2024-01-10T14:03:04;1.10;99.90
15707;DHT22;7953;54.302;10.128;2024-01-10T14:05:31;1.10;99.90
15707;DHT22;7953;54.302;10.128;2024-01-10T14:07:58;1.10;99.90
15707;DHT22;7953;54.302;10.128;2024-01-10T14:10:25;1.10;99.90
15707;DHT22;7953;54.302;10.128;2024-01-10T14:12:51;1.10;99.90
15707;DHT22;7953;54.302;10.128;2024-01-10T14:15:18;1.10;99.90
15707;DHT22;7953;54.302;10.128;2024-01-10T14:17:47;1.10;99.90
15707;DHT22;7953;54.302;10.128;2024-01-10T14:20:14;1.10;99.90
15707;DHT22;7953;54.302;10.128;2024-01-10T14:22:41;1.10;99.90
15707;DHT22;7953;54.302;10.128;2024-01-10T14:25:08;1.10;99.90
15707;DHT22;7953;54.302;10.128;2024-01-10T14:27:36;1.10;99.90
15707;DHT22;7953;54.302;10.128;2024-01-10T14:30:06;1.10;99.90
15707;DHT22;7953;54.302;10.128;2024-01-10T14:32:35;1.10;99.90
15707;DHT22;7953;54.302;10.128;2024-01-10T14:35:04;1.00;99.90
15707;DHT22;7953;54.302;10.128;2024-01-10T14:37:31;1.00;99.90
15707;DHT22;7953;54.302;10.128;2024-01-10T14:39:58;1.00;99.90
15707;DHT22;7953;54.302;10.128;2024-01-10T14:42:25;1.00;99.90
15707;DHT22;7953;54.302;10.128;2024-01-10T14:44:52;1.00;99.90
15707;DHT22;7953;54.302;10.128;2024-01-10T14:47:19;1.00;99.90
15707;DHT22;7953;54.302;10.128;2024-01-10T14:49:46;0.90;99.90
15707;DHT22;7953;54.302;10.128;2024-01-10T14:52:15;1.00;99.90
15707;DHT22;7953;54.302;10.128;2024-01-10T14:54:41;0.90;99.90
15707;DHT22;7953;54.302;10.128;2024-01-10T14:57:08;1.00;99.90
15707;DHT22;7953;54.302;10.128;2024-01-10T14:59:35;1.00;99.90
15707;DHT22;7953;54.302;10.128;2024-01-10T15:02:03;0.90;99.90
15707;DHT22;7953;54.302;10.128;2024-01-10T15:04:32;0.90;99.90
15707;DHT22;7953;54.302;10.128;2024-01-10T15:07:03;0.90;99.90
15707;DHT22;7953;54.302;10.128;2024-01-10T15:09:31;0.90;99.90
15707;DHT22;7953;54.302;10.128;2024-01-10T15:11:58;0.90;99.90
15707;DHT22;7953;54.302;10.128;2024-01-10T15:14:24;0.90;99.90
15707;DHT22;7953;54.302;10.128;2024-01-10T15:16:51;0.90;99.90
15707;DHT22;7953;54.302;10.128;2024-01-10T15:19:18;0.80;99.90
15707;DHT22;7953;54.302;10.128;2024-01-10T15:21:45;0.80;99.90
15707;DHT22;7953;54.302;10.128;2024-01-10T15:24:13;0.80;99.90
15707;DHT22;7953;54.302;10.128;2024-01-10T15:26:41;0.80;99.90
15707;DHT22;7953;54.302;10.128;2024-01-10T15:29:08;0.80;99.90
15707;DHT22;7953;54.302;10.128;2024-01-10T15:31:35;0.80;99.90
15707;DHT22;7953;54.302;10.128;2024-01-10T15:34:02;0.80;99.90
15707;DHT22;7953;54.302;10.128;2024-01-10T15:36:29;0.80;99.90
15707;DHT22;7953;54.302;10.128;2024-01-10T15:38:56;0.80;99.90
15707;DHT22;7953;54.302;10.128;2024-01-10T15:41:23;0.80;99.90